KBFI/BFI METAR and TAF weather

Enter ICAO airport designator
Station Type Date Time Source
KBFI METAR 2019/08/25 02:53 UTC NOAA

KBFI 250253Z VRB04KT 10SM BKN040 BKN050 21/11 A3001 RMK AO2 SLP163 T02060111 53012


Station Type Date Time Source
KBFI Decoded METAR 2019/08/25 02:53 UTC NOAA

Station name not available
Aug 24, 2019 - 10:53 PM EDT / 2019.08.25 0253 UTC
Wind: Variable at 5 MPH (4 KT):0
Visibility: 10 mile(s):0
Sky conditions: mostly cloudy
Temperature: 69.1 F (20.6 C)
Dew Point: 52.0 F (11.1 C)
Relative Humidity: 54%
Pressure (altimeter): 30.01 in. Hg (1016 hPa)
Pressure tendency: 0.04 inches (1.2 hPa) higher than three hours ago
ob: KBFI 250253Z VRB04KT 10SM BKN040 BKN050 21/11 A3001 RMK AO2 SLP163 T02060111 53012
cycle: 3

Station Type Date Time Source
KBFI TAF 2019/08/24 18:39 UTC NOAA

TAF KBFI 241737Z 2418/2518 18005KT P6SM SCT030 SCT080 BKN250
FM242200 24006KT P6SM BKN060
FM250200 29006KT P6SM BKN060
FM251200 17003KT P6SM OVC030

Example: see airport list